sensor_id;sensor_type;location;lat;lon;timestamp;pressure;altitude;pressure_sealevel;temperature;humidity
41106;BME280;74159;52.530;13.188;2024-01-16T00:01:04;99637.69;;;-0.38;76.75
41106;BME280;74159;52.530;13.188;2024-01-16T00:03:31;99637.22;;;-0.35;77.90
41106;BME280;74159;52.530;13.188;2024-01-16T00:05:56;99640.00;;;-0.53;79.17
41106;BME280;74159;52.530;13.188;2024-01-16T00:08:22;99634.63;;;-0.90;80.52
41106;BME280;74159;52.530;13.188;2024-01-16T00:10:47;99628.81;;;-0.75;81.28
41106;BME280;74159;52.530;13.188;2024-01-16T00:13:13;99636.53;;;-1.09;83.09
41106;BME280;74159;52.530;13.188;2024-01-16T00:15:38;99646.47;;;-1.03;83.02
41106;BME280;74159;52.530;13.188;2024-01-16T00:18:06;99647.47;;;-0.97;82.41
41106;BME280;74159;52.530;13.188;2024-01-16T00:20:33;99634.88;;;-1.10;82.87
41106;BME280;74159;52.530;13.188;2024-01-16T00:22:59;99637.59;;;-1.10;83.51
41106;BME280;74159;52.530;13.188;2024-01-16T00:25:24;99634.72;;;-1.15;83.79
41106;BME280;74159;52.530;13.188;2024-01-16T00:27:50;99647.16;;;-1.26;84.19
41106;BME280;74159;52.530;13.188;2024-01-16T00:30:16;99654.44;;;-1.44;85.83
41106;BME280;74159;52.530;13.188;2024-01-16T00:32:41;99654.59;;;-1.03;84.90
41106;BME280;74159;52.530;13.188;2024-01-16T00:35:07;99663.66;;;-0.91;84.96
41106;BME280;74159;52.530;13.188;2024-01-16T00:37:32;99670.75;;;-1.08;83.62
41106;BME280;74159;52.530;13.188;2024-01-16T00:39:57;99677.81;;;-1.07;84.03
41106;BME280;74159;52.530;13.188;2024-01-16T00:42:23;99683.84;;;-0.86;83.21
41106;BME280;74159;52.530;13.188;2024-01-16T00:44:48;99680.66;;;-1.38;84.29
41106;BME280;74159;52.530;13.188;2024-01-16T00:47:13;99697.03;;;-1.52;85.73
41106;BME280;74159;52.530;13.188;2024-01-16T00:49:39;99717.19;;;-0.98;85.50
41106;BME280;74159;52.530;13.188;2024-01-16T00:52:04;99714.16;;;-1.08;84.42
41106;BME280;74159;52.530;13.188;2024-01-16T00:54:30;99713.31;;;-1.27;85.49
41106;BME280;74159;52.530;13.188;2024-01-16T00:56:55;99709.72;;;-1.45;85.66
41106;BME280;74159;52.530;13.188;2024-01-16T00:59:25;99721.06;;;-1.30;86.61
41106;BME280;74159;52.530;13.188;2024-01-16T01:01:51;99732.28;;;-1.27;85.18
41106;BME280;74159;52.530;13.188;2024-01-16T01:04:17;99730.22;;;-1.06;85.53
41106;BME280;74159;52.530;13.188;2024-01-16T01:06:42;99731.66;;;-1.47;86.09
41106;BME280;74159;52.530;13.188;2024-01-16T01:09:08;99732.22;;;-1.70;84.91
41106;BME280;74159;52.530;13.188;2024-01-16T01:11:37;99734.13;;;-1.45;84.81
41106;BME280;74159;52.530;13.188;2024-01-16T01:14:03;99738.84;;;-1.59;86.02
41106;BME280;74159;52.530;13.188;2024-01-16T01:16:28;99748.91;;;-1.66;85.25
41106;BME280;74159;52.530;13.188;2024-01-16T01:18:53;99752.50;;;-1.47;84.46
41106;BME280;74159;52.530;13.188;2024-01-16T01:21:19;99748.41;;;-1.57;84.51
41106;BME280;74159;52.530;13.188;2024-01-16T01:23:45;99750.28;;;-1.57;83.73
41106;BME280;74159;52.530;13.188;2024-01-16T01:26:10;99753.81;;;-1.57;83.86
41106;BME280;74159;52.530;13.188;2024-01-16T01:28:39;99759.47;;;-1.58;83.13
41106;BME280;74159;52.530;13.188;2024-01-16T01:31:05;99757.19;;;-1.61;83.97
41106;BME280;74159;52.530;13.188;2024-01-16T01:33:30;99753.16;;;-1.77;84.31
41106;BME280;74159;52.530;13.188;2024-01-16T01:35:56;99743.72;;;-1.99;84.38
41106;BME280;74159;52.530;13.188;2024-01-16T01:38:21;99753.81;;;-1.82;83.42
41106;BME280;74159;52.530;13.188;2024-01-16T01:40:46;99758.63;;;-1.59;82.80
41106;BME280;74159;52.530;13.188;2024-01-16T01:43:22;99764.13;;;-2.03;82.94
41106;BME280;74159;52.530;13.188;2024-01-16T01:48:22;99774.56;;;-2.00;82.97
41106;BME280;74159;52.530;13.188;2024-01-16T01:50:48;99772.88;;;-1.70;82.40
41106;BME280;74159;52.530;13.188;2024-01-16T01:53:13;99774.69;;;-1.57;81.89
41106;BME280;74159;52.530;13.188;2024-01-16T01:55:39;99788.91;;;-1.93;82.07
41106;BME280;74159;52.530;13.188;2024-01-16T01:58:04;99785.09;;;-1.54;82.57
41106;BME280;74159;52.530;13.188;2024-01-16T02:00:31;99793.00;;;-1.53;81.89
41106;BME280;74159;52.530;13.188;2024-01-16T02:02:56;99780.06;;;-1.50;81.68
41106;BME280;74159;52.530;13.188;2024-01-16T02:05:22;99787.53;;;-1.46;81.80
41106;BME280;74159;52.530;13.188;2024-01-16T02:07:47;99797.88;;;-1.36;81.71
41106;BME280;74159;52.530;13.188;2024-01-16T02:10:13;99790.78;;;-1.37;81.25
41106;BME280;74159;52.530;13.188;2024-01-16T02:12:39;99797.38;;;-1.52;80.73
41106;BME280;74159;52.530;13.188;2024-01-16T02:15:04;99811.03;;;-1.65;81.26
41106;BME280;74159;52.530;13.188;2024-01-16T02:17:30;99796.00;;;-1.61;82.13
41106;BME280;74159;52.530;13.188;2024-01-16T02:19:55;99809.19;;;-1.71;81.48
41106;BME280;74159;52.530;13.188;2024-01-16T02:22:23;99805.84;;;-1.41;81.64
41106;BME280;74159;52.530;13.188;2024-01-16T02:24:50;99819.06;;;-1.52;81.52
41106;BME280;74159;52.530;13.188;2024-01-16T02:27:16;99822.63;;;-1.26;81.20
41106;BME280;74159;52.530;13.188;2024-01-16T02:29:42;99822.84;;;-1.28;80.73
41106;BME280;74159;52.530;13.188;2024-01-16T02:32:13;99830.09;;;-1.46;81.39
41106;BME280;74159;52.530;13.188;2024-01-16T02:34:39;99838.03;;;-1.52;81.27
41106;BME280;74159;52.530;13.188;2024-01-16T02:37:04;99838.84;;;-1.44;81.51
41106;BME280;74159;52.530;13.188;2024-01-16T02:39:30;99838.41;;;-1.41;81.06
41106;BME280;74159;52.530;13.188;2024-01-16T02:41:55;99845.63;;;-1.29;80.51
41106;BME280;74159;52.530;13.188;2024-01-16T02:44:21;99854.31;;;-1.52;81.01
41106;BME280;74159;52.530;13.188;2024-01-16T02:46:47;99868.50;;;-1.49;80.68
41106;BME280;74159;52.530;13.188;2024-01-16T02:49:12;99875.22;;;-1.59;80.39
41106;BME280;74159;52.530;13.188;2024-01-16T02:51:37;99864.13;;;-1.50;80.97
41106;BME280;74159;52.530;13.188;2024-01-16T02:54:03;99873.09;;;-1.50;80.67
41106;BME280;74159;52.530;13.188;2024-01-16T02:56:28;99879.59;;;-1.58;80.80
41106;BME280;74159;52.530;13.188;2024-01-16T02:58:54;99881.03;;;-1.55;81.78
41106;BME280;74159;52.530;13.188;2024-01-16T03:01:19;99872.22;;;-1.44;80.77
41106;BME280;74159;52.530;13.188;2024-01-16T03:03:44;99875.16;;;-1.45;81.05
41106;BME280;74159;52.530;13.188;2024-01-16T03:06:10;99880.25;;;-1.62;81.29
41106;BME280;74159;52.530;13.188;2024-01-16T03:08:35;99890.72;;;-1.34;80.36
41106;BME280;74159;52.530;13.188;2024-01-16T03:11:00;99888.78;;;-1.27;80.35
41106;BME280;74159;52.530;13.188;2024-01-16T03:13:26;99900.31;;;-1.38;80.96
41106;BME280;74159;52.530;13.188;2024-01-16T03:15:51;99913.19;;;-1.59;81.64
41106;BME280;74159;52.530;13.188;2024-01-16T03:18:16;99904.16;;;-1.53;81.88
41106;BME280;74159;52.530;13.188;2024-01-16T03:20:43;99917.31;;;-1.49;81.34
41106;BME280;74159;52.530;13.188;2024-01-16T03:23:08;99910.19;;;-1.44;81.09
41106;BME280;74159;52.530;13.188;2024-01-16T03:25:33;99919.00;;;-1.55;81.74
41106;BME280;74159;52.530;13.188;2024-01-16T03:28:04;99921.91;;;-1.57;80.96
41106;BME280;74159;52.530;13.188;2024-01-16T03:30:29;99932.81;;;-1.70;81.54
41106;BME280;74159;52.530;13.188;2024-01-16T03:32:55;99936.19;;;-1.68;81.59
41106;BME280;74159;52.530;13.188;2024-01-16T03:35:20;99941.59;;;-1.68;81.24
41106;BME280;74159;52.530;13.188;2024-01-16T03:37:45;99944.22;;;-1.99;81.91
41106;BME280;74159;52.530;13.188;2024-01-16T03:40:11;99950.38;;;-1.86;81.87
41106;BME280;74159;52.530;13.188;2024-01-16T03:42:38;99965.41;;;-1.90;82.31
41106;BME280;74159;52.530;13.188;2024-01-16T03:45:03;99970.00;;;-1.90;82.06
41106;BME280;74159;52.530;13.188;2024-01-16T03:47:30;99963.16;;;-1.93;82.52
41106;BME280;74159;52.530;13.188;2024-01-16T03:49:56;99969.19;;;-1.91;82.06
41106;BME280;74159;52.530;13.188;2024-01-16T03:52:21;99969.22;;;-1.97;82.72
41106;BME280;74159;52.530;13.188;2024-01-16T03:54:46;99970.41;;;-1.87;82.07
41106;BME280;74159;52.530;13.188;2024-01-16T03:57:12;99967.00;;;-1.62;81.62
41106;BME280;74159;52.530;13.188;2024-01-16T03:59:37;99978.53;;;-1.80;82.26
41106;BME280;74159;52.530;13.188;2024-01-16T04:02:03;99975.75;;;-1.60;80.97
41106;BME280;74159;52.530;13.188;2024-01-16T04:04:28;99976.88;;;-1.81;81.04
41106;BME280;74159;52.530;13.188;2024-01-16T04:06:54;99978.53;;;-1.80;81.75
41106;BME280;74159;52.530;13.188;2024-01-16T04:09:19;99984.97;;;-1.74;82.24
41106;BME280;74159;52.530;13.188;2024-01-16T04:11:45;99988.81;;;-2.08;82.27
41106;BME280;74159;52.530;13.188;2024-01-16T04:14:12;99988.28;;;-1.66;81.54
41106;BME280;74159;52.530;13.188;2024-01-16T04:16:37;99998.50;;;-1.61;80.66
41106;BME280;74159;52.530;13.188;2024-01-16T04:19:03;99994.19;;;-1.82;81.98
41106;BME280;74159;52.530;13.188;2024-01-16T04:21:28;99999.44;;;-2.00;82.52
41106;BME280;74159;52.530;13.188;2024-01-16T04:23:53;100001.09;;;-1.99;82.56
41106;BME280;74159;52.530;13.188;2024-01-16T04:26:19;100002.97;;;-1.93;82.58
41106;BME280;74159;52.530;13.188;2024-01-16T04:28:44;100003.53;;;-1.78;82.66
41106;BME280;74159;52.530;13.188;2024-01-16T04:31:09;100005.81;;;-1.75;81.89
41106;BME280;74159;52.530;13.188;2024-01-16T04:33:37;100003.81;;;-1.99;82.38
41106;BME280;74159;52.530;13.188;2024-01-16T04:36:02;100000.69;;;-1.96;81.87
41106;BME280;74159;52.530;13.188;2024-01-16T04:38:27;99989.41;;;-1.93;82.38
41106;BME280;74159;52.530;13.188;2024-01-16T04:40:53;99992.38;;;-2.01;82.54
41106;BME280;74159;52.530;13.188;2024-01-16T04:43:18;99998.75;;;-1.76;81.33
41106;BME280;74159;52.530;13.188;2024-01-16T04:45:43;100007.31;;;-1.86;82.37
41106;BME280;74159;52.530;13.188;2024-01-16T04:48:09;100003.34;;;-1.76;81.64
41106;BME280;74159;52.530;13.188;2024-01-16T04:50:35;100007.88;;;-1.64;80.62
41106;BME280;74159;52.530;13.188;2024-01-16T04:53:01;100009.38;;;-1.74;81.19
41106;BME280;74159;52.530;13.188;2024-01-16T04:55:29;100011.22;;;-1.68;80.97
41106;BME280;74159;52.530;13.188;2024-01-16T04:57:55;100006.72;;;-1.94;81.52
41106;BME280;74159;52.530;13.188;2024-01-16T05:00:21;100003.81;;;-2.06;82.39
41106;BME280;74159;52.530;13.188;2024-01-16T05:02:47;100007.56;;;-2.00;82.59
41106;BME280;74159;52.530;13.188;2024-01-16T05:05:13;100014.41;;;-1.85;81.57
41106;BME280;74159;52.530;13.188;2024-01-16T05:07:38;100017.03;;;-1.58;81.15
41106;BME280;74159;52.530;13.188;2024-01-16T05:10:05;100015.81;;;-1.62;80.46
41106;BME280;74159;52.530;13.188;2024-01-16T05:12:31;100011.28;;;-1.88;81.24
41106;BME280;74159;52.530;13.188;2024-01-16T05:14:56;100023.84;;;-2.14;82.58
41106;BME280;74159;52.530;13.188;2024-01-16T05:17:22;100026.72;;;-1.95;82.16
41106;BME280;74159;52.530;13.188;2024-01-16T05:19:47;100032.59;;;-2.12;82.58
41106;BME280;74159;52.530;13.188;2024-01-16T05:22:12;100025.06;;;-2.03;82.06
41106;BME280;74159;52.530;13.188;2024-01-16T05:24:38;100040.50;;;-2.10;82.40
41106;BME280;74159;52.530;13.188;2024-01-16T05:27:03;100030.03;;;-1.87;81.91
41106;BME280;74159;52.530;13.188;2024-01-16T05:29:30;100032.59;;;-2.12;82.55
41106;BME280;74159;52.530;13.188;2024-01-16T05:31:56;100036.28;;;-1.86;81.73
41106;BME280;74159;52.530;13.188;2024-01-16T05:34:21;100034.25;;;-1.97;82.19
41106;BME280;74159;52.530;13.188;2024-01-16T05:36:46;100036.72;;;-2.02;82.13
41106;BME280;74159;52.530;13.188;2024-01-16T05:39:12;100030.47;;;-2.03;81.54
41106;BME280;74159;52.530;13.188;2024-01-16T05:41:37;100044.84;;;-1.83;83.38
41106;BME280;74159;52.530;13.188;2024-01-16T05:44:03;100048.84;;;-1.98;83.59
41106;BME280;74159;52.530;13.188;2024-01-16T05:46:30;100045.09;;;-2.24;83.15
41106;BME280;74159;52.530;13.188;2024-01-16T05:48:56;100050.50;;;-2.04;83.87
41106;BME280;74159;52.530;13.188;2024-01-16T05:51:21;100056.34;;;-2.47;83.04
41106;BME280;74159;52.530;13.188;2024-01-16T05:53:46;100064.47;;;-2.47;83.47
41106;BME280;74159;52.530;13.188;2024-01-16T05:56:12;100076.75;;;-2.51;83.70
41106;BME280;74159;52.530;13.188;2024-01-16T05:58:37;100068.41;;;-2.23;83.23
41106;BME280;74159;52.530;13.188;2024-01-16T06:01:04;100062.38;;;-2.51;83.30
41106;BME280;74159;52.530;13.188;2024-01-16T06:03:30;100060.28;;;-2.36;83.48
41106;BME280;74159;52.530;13.188;2024-01-16T06:05:55;100060.09;;;-2.28;83.41
41106;BME280;74159;52.530;13.188;2024-01-16T06:08:21;100063.41;;;-2.39;83.28
41106;BME280;74159;52.530;13.188;2024-01-16T06:10:46;100063.41;;;-2.39;83.56
41106;BME280;74159;52.530;13.188;2024-01-16T06:13:11;100069.25;;;-2.42;83.34
41106;BME280;74159;52.530;13.188;2024-01-16T06:15:37;100071.31;;;-2.57;83.68
41106;BME280;74159;52.530;13.188;2024-01-16T06:18:02;100070.47;;;-2.58;83.85
41106;BME280;74159;52.530;13.188;2024-01-16T06:20:28;100082.78;;;-2.55;83.47
41106;BME280;74159;52.530;13.188;2024-01-16T06:22:54;100090.50;;;-2.46;83.56
41106;BME280;74159;52.530;13.188;2024-01-16T06:25:19;100084.25;;;-2.39;83.17
41106;BME280;74159;52.530;13.188;2024-01-16T06:27:45;100096.34;;;-2.49;83.30
41106;BME280;74159;52.530;13.188;2024-01-16T06:30:11;100094.84;;;-2.58;83.44
41106;BME280;74159;52.530;13.188;2024-01-16T06:32:36;100099.03;;;-2.35;82.91
41106;BME280;74159;52.530;13.188;2024-01-16T06:35:04;100093.34;;;-2.74;82.63
41106;BME280;74159;52.530;13.188;2024-01-16T06:37:30;100103.97;;;-2.72;84.10
41106;BME280;74159;52.530;13.188;2024-01-16T06:40:01;100106.75;;;-2.46;83.58
41106;BME280;74159;52.530;13.188;2024-01-16T06:42:28;100109.06;;;-2.29;82.73
41106;BME280;74159;52.530;13.188;2024-01-16T06:44:53;100116.38;;;-2.17;82.55
41106;BME280;74159;52.530;13.188;2024-01-16T06:47:18;100125.53;;;-2.18;82.64
41106;BME280;74159;52.530;13.188;2024-01-16T06:49:44;100127.19;;;-2.17;82.41
41106;BME280;74159;52.530;13.188;2024-01-16T06:52:09;100137.63;;;-2.14;81.93
41106;BME280;74159;52.530;13.188;2024-01-16T06:54:34;100135.09;;;-2.22;82.24
41106;BME280;74159;52.530;13.188;2024-01-16T06:57:00;100139.88;;;-2.24;83.12
41106;BME280;74159;52.530;13.188;2024-01-16T06:59:25;100141.78;;;-2.18;82.17
41106;BME280;74159;52.530;13.188;2024-01-16T07:01:50;100138.03;;;-2.03;81.97
41106;BME280;74159;52.530;13.188;2024-01-16T07:04:16;100147.59;;;-2.07;81.62
41106;BME280;74159;52.530;13.188;2024-01-16T07:06:42;100158.88;;;-1.97;80.81
41106;BME280;74159;52.530;13.188;2024-01-16T07:09:08;100143.84;;;-2.20;82.49
41106;BME280;74159;52.530;13.188;2024-01-16T07:11:36;100154.69;;;-2.20;81.88
41106;BME280;74159;52.530;13.188;2024-01-16T07:14:01;100159.91;;;-2.12;83.02
41106;BME280;74159;52.530;13.188;2024-01-16T07:16:28;100159.06;;;-1.86;81.61
41106;BME280;74159;52.530;13.188;2024-01-16T07:18:53;100162.81;;;-2.13;81.72
41106;BME280;74159;52.530;13.188;2024-01-16T07:21:20;100159.31;;;-2.00;82.06
41106;BME280;74159;52.530;13.188;2024-01-16T07:23:46;100159.28;;;-1.87;81.49
41106;BME280;74159;52.530;13.188;2024-01-16T07:26:12;100162.41;;;-2.03;82.30
41106;BME280;74159;52.530;13.188;2024-01-16T07:28:37;100158.88;;;-1.84;82.93
41106;BME280;74159;52.530;13.188;2024-01-16T07:31:03;100170.13;;;-1.94;82.77
41106;BME280;74159;52.530;13.188;2024-01-16T07:33:28;100159.72;;;-1.90;82.59
41106;BME280;74159;52.530;13.188;2024-01-16T07:35:54;100162.97;;;-2.41;84.13
41106;BME280;74159;52.530;13.188;2024-01-16T07:38:20;100156.56;;;-2.14;83.29
41106;BME280;74159;52.530;13.188;2024-01-16T07:40:45;100165.13;;;-2.03;83.21
41106;BME280;74159;52.530;13.188;2024-01-16T07:43:11;100173.06;;;-1.82;82.59
41106;BME280;74159;52.530;13.188;2024-01-16T07:45:37;100182.00;;;-1.88;82.08
41106;BME280;74159;52.530;13.188;2024-01-16T07:48:03;100179.31;;;-1.75;81.86
41106;BME280;74159;52.530;13.188;2024-01-16T07:50:28;100178.25;;;-1.74;81.52
41106;BME280;74159;52.530;13.188;2024-01-16T07:52:53;100185.97;;;-1.71;81.63
41106;BME280;74159;52.530;13.188;2024-01-16T07:55:19;100191.38;;;-1.44;80.98
41106;BME280;74159;52.530;13.188;2024-01-16T07:57:44;100193.06;;;-1.50;80.88
41106;BME280;74159;52.530;13.188;2024-01-16T08:00:10;100197.44;;;-1.95;81.80
41106;BME280;74159;52.530;13.188;2024-01-16T08:02:37;100203.91;;;-1.83;82.73
41106;BME280;74159;52.530;13.188;2024-01-16T08:05:03;100198.47;;;-1.96;83.93
41106;BME280;74159;52.530;13.188;2024-01-16T08:07:28;100201.41;;;-1.71;82.53
41106;BME280;74159;52.530;13.188;2024-01-16T08:09:53;100202.66;;;-1.87;83.46
41106;BME280;74159;52.530;13.188;2024-01-16T08:12:19;100211.41;;;-1.72;83.02
41106;BME280;74159;52.530;13.188;2024-01-16T08:14:44;100213.28;;;-1.46;82.02
41106;BME280;74159;52.530;13.188;2024-01-16T08:17:09;100215.19;;;-1.46;81.85
41106;BME280;74159;52.530;13.188;2024-01-16T08:19:35;100205.56;;;-1.42;82.26
41106;BME280;74159;52.530;13.188;2024-01-16T08:22:01;100207.84;;;-1.86;83.08
41106;BME280;74159;52.530;13.188;2024-01-16T08:24:27;100204.94;;;-1.58;81.97
41106;BME280;74159;52.530;13.188;2024-01-16T08:26:53;100204.97;;;-1.64;82.61
41106;BME280;74159;52.530;13.188;2024-01-16T08:29:18;100213.69;;;-1.42;82.48
41106;BME280;74159;52.530;13.188;2024-01-16T08:31:44;100214.97;;;-1.71;82.72
41106;BME280;74159;52.530;13.188;2024-01-16T08:34:09;100208.91;;;-1.80;83.66
41106;BME280;74159;52.530;13.188;2024-01-16T08:36:35;100223.91;;;-1.71;83.49
41106;BME280;74159;52.530;13.188;2024-01-16T08:39:00;100224.38;;;-1.67;83.60
41106;BME280;74159;52.530;13.188;2024-01-16T08:41:25;100215.56;;;-1.23;81.85
41106;BME280;74159;52.530;13.188;2024-01-16T08:43:51;100211.84;;;-1.48;82.30
41106;BME280;74159;52.530;13.188;2024-01-16T08:46:16;100205.34;;;-1.41;82.79
41106;BME280;74159;52.530;13.188;2024-01-16T08:48:44;100200.13;;;-1.16;81.47
41106;BME280;74159;52.530;13.188;2024-01-16T08:51:11;100209.31;;;-1.17;81.87
41106;BME280;74159;52.530;13.188;2024-01-16T08:53:40;100206.00;;;-1.45;83.13
41106;BME280;74159;52.530;13.188;2024-01-16T08:56:05;100208.69;;;-1.39;83.14
41106;BME280;74159;52.530;13.188;2024-01-16T08:58:34;100213.88;;;-1.11;82.12
41106;BME280;74159;52.530;13.188;2024-01-16T09:01:04;100215.06;;;-0.94;81.19
41106;BME280;74159;52.530;13.188;2024-01-16T09:03:33;100211.63;;;-0.69;79.53
41106;BME280;74159;52.530;13.188;2024-01-16T09:05:59;100218.28;;;-1.16;81.78
41106;BME280;74159;52.530;13.188;2024-01-16T09:08:28;100211.13;;;-0.98;82.66
41106;BME280;74159;52.530;13.188;2024-01-16T09:10:54;100216.66;;;-0.73;81.12
41106;BME280;74159;52.530;13.188;2024-01-16T09:13:20;100214.59;;;-0.77;80.68
41106;BME280;74159;52.530;13.188;2024-01-16T09:15:47;100229.19;;;-0.65;80.48
41106;BME280;74159;52.530;13.188;2024-01-16T09:18:12;100223.63;;;-0.90;80.76
41106;BME280;74159;52.530;13.188;2024-01-16T09:20:38;100217.00;;;-1.01;81.75
41106;BME280;74159;52.530;13.188;2024-01-16T09:23:04;100228.38;;;-0.72;80.84
41106;BME280;74159;52.530;13.188;2024-01-16T09:25:29;100229.78;;;-0.56;80.13
41106;BME280;74159;52.530;13.188;2024-01-16T09:27:55;100224.63;;;-0.84;80.87
41106;BME280;74159;52.530;13.188;2024-01-16T09:30:20;100227.03;;;-0.50;80.58
41106;BME280;74159;52.530;13.188;2024-01-16T09:32:48;100238.00;;;-0.76;80.79
41106;BME280;74159;52.530;13.188;2024-01-16T09:35:13;100234.63;;;-0.65;80.70
41106;BME280;74159;52.530;13.188;2024-01-16T09:37:38;100230.38;;;-0.54;80.50
41106;BME280;74159;52.530;13.188;2024-01-16T09:40:05;100231.00;;;-0.46;79.93
41106;BME280;74159;52.530;13.188;2024-01-16T09:42:31;100237.56;;;-0.67;80.42
41106;BME280;74159;52.530;13.188;2024-01-16T09:44:57;100237.09;;;-0.57;81.12
41106;BME280;74159;52.530;13.188;2024-01-16T09:47:24;100241.34;;;-0.81;81.92
41106;BME280;74159;52.530;13.188;2024-01-16T09:49:50;100244.03;;;-0.16;80.12
41106;BME280;74159;52.530;13.188;2024-01-16T09:52:15;100235.69;;;-0.73;81.56
41106;BME280;74159;52.530;13.188;2024-01-16T09:54:41;100235.97;;;0.02;80.72
41106;BME280;74159;52.530;13.188;2024-01-16T09:57:07;100238.69;;;-0.43;81.46
41106;BME280;74159;52.530;13.188;2024-01-16T09:59:35;100229.69;;;0.02;80.35
41106;BME280;74159;52.530;13.188;2024-01-16T10:02:02;100233.84;;;0.04;80.25
41106;BME280;74159;52.530;13.188;2024-01-16T10:04:35;100231.25;;;0.16;78.24
41106;BME280;74159;52.530;13.188;2024-01-16T10:07:02;100233.56;;;0.19;78.12
41106;BME280;74159;52.530;13.188;2024-01-16T10:09:27;100237.41;;;-0.34;79.73
41106;BME280;74159;52.530;13.188;2024-01-16T10:11:53;100241.81;;;-0.01;79.69
41106;BME280;74159;52.530;13.188;2024-01-16T10:14:19;100235.97;;;0.02;78.64
41106;BME280;74159;52.530;13.188;2024-01-16T10:17:02;100233.91;;;0.54;78.32
41106;BME280;74159;52.530;13.188;2024-01-16T10:19:31;100230.06;;;0.86;76.74
41106;BME280;74159;52.530;13.188;2024-01-16T10:22:04;100229.69;;;0.58;76.12
41106;BME280;74159;52.530;13.188;2024-01-16T10:24:29;100235.13;;;0.58;78.41
41106;BME280;74159;52.530;13.188;2024-01-16T10:26:59;100236.72;;;0.90;75.46
41106;BME280;74159;52.530;13.188;2024-01-16T10:29:32;100230.22;;;1.28;74.17
41106;BME280;74159;52.530;13.188;2024-01-16T10:31:58;100230.53;;;1.02;74.06
41106;BME280;74159;52.530;13.188;2024-01-16T10:34:24;100237.78;;;0.89;75.12
41106;BME280;74159;52.530;13.188;2024-01-16T10:36:51;100231.28;;;0.66;75.08
41106;BME280;74159;52.530;13.188;2024-01-16T10:39:17;100236.69;;;0.72;75.75
41106;BME280;74159;52.530;13.188;2024-01-16T10:41:54;100232.56;;;0.63;76.34
41106;BME280;74159;52.530;13.188;2024-01-16T10:44:19;100226.72;;;0.84;75.66
41106;BME280;74159;52.530;13.188;2024-01-16T10:46:45;100235.53;;;0.05;78.10
41106;BME280;74159;52.530;13.188;2024-01-16T10:49:10;100240.56;;;0.58;75.85
41106;BME280;74159;52.530;13.188;2024-01-16T10:51:35;100244.78;;;0.54;74.93
41106;BME280;74159;52.530;13.188;2024-01-16T10:54:04;100241.00;;;0.55;75.84
41106;BME280;74159;52.530;13.188;2024-01-16T10:56:31;100246.16;;;0.38;76.75
41106;BME280;74159;52.530;13.188;2024-01-16T11:01:30;100243.31;;;0.26;77.51
41106;BME280;74159;52.530;13.188;2024-01-16T11:03:57;100234.97;;;0.53;75.80
41106;BME280;74159;52.530;13.188;2024-01-16T11:06:24;100238.53;;;0.53;74.61
41106;BME280;74159;52.530;13.188;2024-01-16T11:08:50;100236.88;;;0.46;75.45
41106;BME280;74159;52.530;13.188;2024-01-16T11:11:16;100237.94;;;0.45;75.50
41106;BME280;74159;52.530;13.188;2024-01-16T11:13:42;100244.00;;;0.47;75.69
41106;BME280;74159;52.530;13.188;2024-01-16T11:16:12;100240.50;;;0.40;76.04
41106;BME280;74159;52.530;13.188;2024-01-16T11:18:38;100235.06;;;0.40;76.69
41106;BME280;74159;52.530;13.188;2024-01-16T11:21:14;100243.69;;;0.30;76.59
41106;BME280;74159;52.530;13.188;2024-01-16T11:23:40;100237.28;;;0.24;76.50
41106;BME280;74159;52.530;13.188;2024-01-16T11:28:49;100238.78;;;0.20;77.28
41106;BME280;74159;52.530;13.188;2024-01-16T11:31:32;100226.16;;;0.26;77.54
41106;BME280;74159;52.530;13.188;2024-01-16T11:33:58;100226.78;;;0.28;81.08
41106;BME280;74159;52.530;13.188;2024-01-16T11:36:51;100224.88;;;0.28;78.62
41106;BME280;74159;52.530;13.188;2024-01-16T11:39:24;100223.28;;;0.21;77.58
41106;BME280;74159;52.530;13.188;2024-01-16T11:41:57;100220.81;;;0.13;78.27
41106;BME280;74159;52.530;13.188;2024-01-16T11:49:41;100214.59;;;0.06;78.58
41106;BME280;74159;52.530;13.188;2024-01-16T11:52:06;100219.75;;;0.14;78.24
41106;BME280;74159;52.530;13.188;2024-01-16T11:54:33;100212.34;;;0.27;78.09
41106;BME280;74159;52.530;13.188;2024-01-16T12:02:20;100221.00;;;0.43;77.90
41106;BME280;74159;52.530;13.188;2024-01-16T12:04:53;100211.56;;;0.20;77.72
41106;BME280;74159;52.530;13.188;2024-01-16T12:07:22;100205.56;;;0.12;78.68
41106;BME280;74159;52.530;13.188;2024-01-16T12:09:47;100200.88;;;-0.06;79.77
41106;BME280;74159;52.530;13.188;2024-01-16T12:12:15;100209.56;;;0.09;78.88
41106;BME280;74159;52.530;13.188;2024-01-16T12:14:40;100203.63;;;0.19;78.49
41106;BME280;74159;52.530;13.188;2024-01-16T12:17:12;100199.88;;;0.20;79.10
41106;BME280;74159;52.530;13.188;2024-01-16T12:19:39;100188.53;;;0.23;78.22
41106;BME280;74159;52.530;13.188;2024-01-16T12:22:10;100199.31;;;0.36;78.79
41106;BME280;74159;52.530;13.188;2024-01-16T12:24:36;100191.88;;;0.25;77.79
41106;BME280;74159;52.530;13.188;2024-01-16T12:27:02;100198.81;;;0.21;78.12
41106;BME280;74159;52.530;13.188;2024-01-16T12:29:27;100187.91;;;0.46;78.50
41106;BME280;74159;52.530;13.188;2024-01-16T12:34:32;100181.88;;;0.69;76.78
41106;BME280;74159;52.530;13.188;2024-01-16T12:37:06;100188.41;;;0.61;76.31
41106;BME280;74159;52.530;13.188;2024-01-16T12:39:33;100187.66;;;0.54;76.57
41106;BME280;74159;52.530;13.188;2024-01-16T12:41:59;100180.50;;;0.35;77.08
41106;BME280;74159;52.530;13.188;2024-01-16T12:44:28;100188.31;;;0.24;78.25
41106;BME280;74159;52.530;13.188;2024-01-16T12:46:55;100184.69;;;0.30;79.32
41106;BME280;74159;52.530;13.188;2024-01-16T12:49:21;100177.03;;;0.46;78.39
41106;BME280;74159;52.530;13.188;2024-01-16T12:51:47;100174.31;;;0.46;78.17
41106;BME280;74159;52.530;13.188;2024-01-16T12:54:14;100168.28;;;0.44;78.15
41106;BME280;74159;52.530;13.188;2024-01-16T12:56:40;100172.81;;;0.50;78.01
41106;BME280;74159;52.530;13.188;2024-01-16T12:59:12;100170.31;;;0.48;77.52
41106;BME280;74159;52.530;13.188;2024-01-16T13:01:44;100164.81;;;0.55;77.30